sensor_id;sensor_type;location;lat;lon;timestamp;P1;durP1;ratioP1;P2;durP2;ratioP2
18732;SDS011;9495;51.210;2.934;2023-08-24T00:00:31;12.88;;;10.07;;
18732;SDS011;9495;51.210;2.934;2023-08-24T00:03:00;12.50;;;8.70;;
18732;SDS011;9495;51.210;2.934;2023-08-24T00:05:32;13.57;;;9.77;;
18732;SDS011;9495;51.210;2.934;2023-08-24T00:08:01;14.07;;;9.80;;
18732;SDS011;9495;51.210;2.934;2023-08-24T00:10:30;16.80;;;10.32;;
18732;SDS011;9495;51.210;2.934;2023-08-24T00:12:59;15.35;;;10.10;;
18732;SDS011;9495;51.210;2.934;2023-08-24T00:15:27;15.30;;;9.15;;
18732;SDS011;9495;51.210;2.934;2023-08-24T00:17:58;15.30;;;8.77;;
18732;SDS011;9495;51.210;2.934;2023-08-24T00:20:26;13.32;;;8.40;;
18732;SDS011;9495;51.210;2.934;2023-08-24T00:22:55;14.48;;;9.32;;
18732;SDS011;9495;51.210;2.934;2023-08-24T00:25:23;13.52;;;8.57;;
18732;SDS011;9495;51.210;2.934;2023-08-24T00:27:52;14.77;;;9.35;;
18732;SDS011;9495;51.210;2.934;2023-08-24T00:30:21;14.02;;;8.45;;
18732;SDS011;9495;51.210;2.934;2023-08-24T00:32:49;17.83;;;10.75;;
18732;SDS011;9495;51.210;2.934;2023-08-24T00:35:19;13.00;;;9.60;;
18732;SDS011;9495;51.210;2.934;2023-08-24T00:37:48;17.77;;;10.27;;
18732;SDS011;9495;51.210;2.934;2023-08-24T00:40:17;14.80;;;9.80;;
18732;SDS011;9495;51.210;2.934;2023-08-24T00:42:46;16.40;;;9.10;;
18732;SDS011;9495;51.210;2.934;2023-08-24T00:45:14;13.75;;;9.80;;
18732;SDS011;9495;51.210;2.934;2023-08-24T00:47:43;13.55;;;8.63;;
18732;SDS011;9495;51.210;2.934;2023-08-24T00:50:15;13.05;;;8.32;;
18732;SDS011;9495;51.210;2.934;2023-08-24T00:52:46;13.85;;;8.93;;
18732;SDS011;9495;51.210;2.934;2023-08-24T00:55:16;13.02;;;8.73;;
18732;SDS011;9495;51.210;2.934;2023-08-24T00:57:45;12.77;;;8.60;;
18732;SDS011;9495;51.210;2.934;2023-08-24T01:00:15;12.50;;;8.13;;
18732;SDS011;9495;51.210;2.934;2023-08-24T01:02:44;17.83;;;8.52;;
18732;SDS011;9495;51.210;2.934;2023-08-24T01:05:13;16.35;;;7.78;;
18732;SDS011;9495;51.210;2.934;2023-08-24T01:07:42;13.52;;;6.90;;
18732;SDS011;9495;51.210;2.934;2023-08-24T01:10:12;14.02;;;6.85;;
18732;SDS011;9495;51.210;2.934;2023-08-24T01:12:43;15.57;;;8.90;;
18732;SDS011;9495;51.210;2.934;2023-08-24T01:15:19;13.93;;;8.68;;
18732;SDS011;9495;51.210;2.934;2023-08-24T01:17:55;14.23;;;9.02;;
18732;SDS011;9495;51.210;2.934;2023-08-24T01:20:29;14.73;;;9.10;;
18732;SDS011;9495;51.210;2.934;2023-08-24T01:23:03;14.93;;;9.90;;
18732;SDS011;9495;51.210;2.934;2023-08-24T01:25:44;14.48;;;9.77;;
18732;SDS011;9495;51.210;2.934;2023-08-24T01:28:22;17.80;;;9.55;;
18732;SDS011;9495;51.210;2.934;2023-08-24T01:30:51;17.80;;;10.10;;
18732;SDS011;9495;51.210;2.934;2023-08-24T01:33:19;13.57;;;9.70;;
18732;SDS011;9495;51.210;2.934;2023-08-24T01:35:49;15.23;;;9.63;;
18732;SDS011;9495;51.210;2.934;2023-08-24T01:38:18;12.50;;;8.98;;
18732;SDS011;9495;51.210;2.934;2023-08-24T01:40:48;14.32;;;8.40;;
18732;SDS011;9495;51.210;2.934;2023-08-24T01:43:26;13.65;;;10.20;;
18732;SDS011;9495;51.210;2.934;2023-08-24T01:46:10;16.73;;;9.73;;
18732;SDS011;9495;51.210;2.934;2023-08-24T01:48:42;14.52;;;9.93;;
18732;SDS011;9495;51.210;2.934;2023-08-24T01:51:11;14.07;;;9.55;;
18732;SDS011;9495;51.210;2.934;2023-08-24T01:53:41;12.68;;;9.50;;
18732;SDS011;9495;51.210;2.934;2023-08-24T01:56:10;12.32;;;8.73;;
18732;SDS011;9495;51.210;2.934;2023-08-24T01:58:40;18.10;;;9.70;;
18732;SDS011;9495;51.210;2.934;2023-08-24T02:01:08;14.68;;;9.57;;
18732;SDS011;9495;51.210;2.934;2023-08-24T02:03:39;10.55;;;7.93;;
18732;SDS011;9495;51.210;2.934;2023-08-24T02:06:08;15.48;;;9.38;;
18732;SDS011;9495;51.210;2.934;2023-08-24T02:08:37;16.92;;;9.98;;
18732;SDS011;9495;51.210;2.934;2023-08-24T02:11:05;12.05;;;9.93;;
18732;SDS011;9495;51.210;2.934;2023-08-24T02:13:35;13.52;;;10.07;;
18732;SDS011;9495;51.210;2.934;2023-08-24T02:16:05;14.43;;;10.25;;
18732;SDS011;9495;51.210;2.934;2023-08-24T02:18:36;15.50;;;9.75;;
18732;SDS011;9495;51.210;2.934;2023-08-24T02:21:08;16.23;;;10.70;;
18732;SDS011;9495;51.210;2.934;2023-08-24T02:23:39;15.13;;;10.15;;
18732;SDS011;9495;51.210;2.934;2023-08-24T02:26:08;13.32;;;8.35;;
18732;SDS011;9495;51.210;2.934;2023-08-24T02:28:36;14.63;;;10.63;;
18732;SDS011;9495;51.210;2.934;2023-08-24T02:31:07;14.73;;;10.38;;
18732;SDS011;9495;51.210;2.934;2023-08-24T02:33:36;15.00;;;10.82;;
18732;SDS011;9495;51.210;2.934;2023-08-24T02:36:05;15.80;;;11.23;;
18732;SDS011;9495;51.210;2.934;2023-08-24T02:38:33;15.40;;;11.68;;
18732;SDS011;9495;51.210;2.934;2023-08-24T02:41:02;19.02;;;11.10;;
18732;SDS011;9495;51.210;2.934;2023-08-24T02:43:31;20.67;;;12.07;;
18732;SDS011;9495;51.210;2.934;2023-08-24T02:46:00;18.25;;;11.88;;
18732;SDS011;9495;51.210;2.934;2023-08-24T02:48:32;16.45;;;11.20;;
18732;SDS011;9495;51.210;2.934;2023-08-24T02:51:02;18.38;;;12.32;;
18732;SDS011;9495;51.210;2.934;2023-08-24T02:53:31;18.65;;;12.07;;
18732;SDS011;9495;51.210;2.934;2023-08-24T02:56:00;18.52;;;12.02;;
18732;SDS011;9495;51.210;2.934;2023-08-24T02:58:29;16.48;;;11.93;;
18732;SDS011;9495;51.210;2.934;2023-08-24T03:00:58;15.25;;;11.23;;
18732;SDS011;9495;51.210;2.934;2023-08-24T03:03:26;18.13;;;11.75;;
18732;SDS011;9495;51.210;2.934;2023-08-24T03:05:57;15.00;;;11.90;;
18732;SDS011;9495;51.210;2.934;2023-08-24T03:08:27;16.92;;;11.35;;
18732;SDS011;9495;51.210;2.934;2023-08-24T03:10:56;15.63;;;11.82;;
18732;SDS011;9495;51.210;2.934;2023-08-24T03:13:25;19.15;;;12.60;;
18732;SDS011;9495;51.210;2.934;2023-08-24T03:15:54;22.67;;;12.50;;
18732;SDS011;9495;51.210;2.934;2023-08-24T03:18:22;19.35;;;11.95;;
18732;SDS011;9495;51.210;2.934;2023-08-24T03:20:51;21.50;;;12.38;;
18732;SDS011;9495;51.210;2.934;2023-08-24T03:23:21;19.30;;;13.05;;
18732;SDS011;9495;51.210;2.934;2023-08-24T03:25:49;24.00;;;13.60;;
18732;SDS011;9495;51.210;2.934;2023-08-24T03:28:18;15.70;;;12.18;;
18732;SDS011;9495;51.210;2.934;2023-08-24T03:30:46;19.77;;;13.32;;
18732;SDS011;9495;51.210;2.934;2023-08-24T03:33:18;20.17;;;13.63;;
18732;SDS011;9495;51.210;2.934;2023-08-24T03:35:47;19.08;;;14.38;;
18732;SDS011;9495;51.210;2.934;2023-08-24T03:38:16;25.45;;;13.43;;
18732;SDS011;9495;51.210;2.934;2023-08-24T03:40:45;18.65;;;13.20;;
18732;SDS011;9495;51.210;2.934;2023-08-24T03:43:14;21.58;;;13.30;;
18732;SDS011;9495;51.210;2.934;2023-08-24T03:45:42;23.25;;;14.30;;
18732;SDS011;9495;51.210;2.934;2023-08-24T03:48:11;24.10;;;14.50;;
18732;SDS011;9495;51.210;2.934;2023-08-24T03:50:40;23.40;;;14.30;;
18732;SDS011;9495;51.210;2.934;2023-08-24T03:53:09;19.30;;;15.23;;
18732;SDS011;9495;51.210;2.934;2023-08-24T03:55:37;20.98;;;15.05;;
18732;SDS011;9495;51.210;2.934;2023-08-24T03:58:08;21.90;;;15.30;;
18732;SDS011;9495;51.210;2.934;2023-08-24T04:00:37;23.00;;;15.88;;
18732;SDS011;9495;51.210;2.934;2023-08-24T04:03:09;26.23;;;16.25;;
18732;SDS011;9495;51.210;2.934;2023-08-24T04:05:38;20.88;;;15.75;;
18732;SDS011;9495;51.210;2.934;2023-08-24T04:08:06;24.52;;;15.95;;
18732;SDS011;9495;51.210;2.934;2023-08-24T04:10:35;26.67;;;17.33;;
18732;SDS011;9495;51.210;2.934;2023-08-24T04:13:03;23.02;;;16.45;;
18732;SDS011;9495;51.210;2.934;2023-08-24T04:15:33;26.95;;;17.48;;
18732;SDS011;9495;51.210;2.934;2023-08-24T04:18:01;28.30;;;17.98;;
18732;SDS011;9495;51.210;2.934;2023-08-24T04:20:30;25.15;;;16.98;;
18732;SDS011;9495;51.210;2.934;2023-08-24T04:22:59;23.90;;;17.33;;
18732;SDS011;9495;51.210;2.934;2023-08-24T04:25:27;30.20;;;18.35;;
18732;SDS011;9495;51.210;2.934;2023-08-24T04:27:57;25.60;;;16.88;;
18732;SDS011;9495;51.210;2.934;2023-08-24T04:30:25;23.50;;;16.58;;
18732;SDS011;9495;51.210;2.934;2023-08-24T04:32:55;27.98;;;16.75;;
18732;SDS011;9495;51.210;2.934;2023-08-24T04:35:26;23.33;;;16.48;;
18732;SDS011;9495;51.210;2.934;2023-08-24T04:37:55;22.05;;;16.73;;
18732;SDS011;9495;51.210;2.934;2023-08-24T04:40:23;24.88;;;16.75;;
18732;SDS011;9495;51.210;2.934;2023-08-24T04:42:52;23.73;;;16.48;;
18732;SDS011;9495;51.210;2.934;2023-08-24T04:45:20;22.67;;;16.65;;
18732;SDS011;9495;51.210;2.934;2023-08-24T04:47:49;21.52;;;15.82;;
18732;SDS011;9495;51.210;2.934;2023-08-24T04:50:19;22.25;;;17.45;;
18732;SDS011;9495;51.210;2.934;2023-08-24T04:52:48;23.00;;;17.50;;
18732;SDS011;9495;51.210;2.934;2023-08-24T04:55:16;23.52;;;17.50;;
18732;SDS011;9495;51.210;2.934;2023-08-24T04:57:44;30.60;;;19.25;;
18732;SDS011;9495;51.210;2.934;2023-08-24T05:00:15;26.88;;;19.48;;
18732;SDS011;9495;51.210;2.934;2023-08-24T05:02:43;33.08;;;19.85;;
18732;SDS011;9495;51.210;2.934;2023-08-24T05:05:12;29.42;;;19.08;;
18732;SDS011;9495;51.210;2.934;2023-08-24T05:07:42;28.67;;;19.45;;
18732;SDS011;9495;51.210;2.934;2023-08-24T05:10:10;33.10;;;19.55;;
18732;SDS011;9495;51.210;2.934;2023-08-24T05:12:39;24.90;;;18.40;;
18732;SDS011;9495;51.210;2.934;2023-08-24T05:15:08;28.42;;;18.48;;
18732;SDS011;9495;51.210;2.934;2023-08-24T05:17:37;28.42;;;18.67;;
18732;SDS011;9495;51.210;2.934;2023-08-24T05:20:06;24.27;;;18.23;;
18732;SDS011;9495;51.210;2.934;2023-08-24T05:22:37;18.13;;;14.63;;
18732;SDS011;9495;51.210;2.934;2023-08-24T05:25:07;20.65;;;15.85;;
18732;SDS011;9495;51.210;2.934;2023-08-24T05:27:35;18.10;;;13.93;;
18732;SDS011;9495;51.210;2.934;2023-08-24T05:30:04;17.63;;;13.60;;
18732;SDS011;9495;51.210;2.934;2023-08-24T05:32:34;20.95;;;13.38;;
18732;SDS011;9495;51.210;2.934;2023-08-24T05:35:05;21.25;;;13.00;;
18732;SDS011;9495;51.210;2.934;2023-08-24T05:37:34;18.00;;;12.88;;
18732;SDS011;9495;51.210;2.934;2023-08-24T05:40:03;16.30;;;12.93;;
18732;SDS011;9495;51.210;2.934;2023-08-24T05:42:34;19.48;;;13.52;;
18732;SDS011;9495;51.210;2.934;2023-08-24T05:45:03;20.40;;;12.80;;
18732;SDS011;9495;51.210;2.934;2023-08-24T05:47:32;21.58;;;13.52;;
18732;SDS011;9495;51.210;2.934;2023-08-24T05:50:01;18.08;;;14.13;;
18732;SDS011;9495;51.210;2.934;2023-08-24T05:52:29;19.77;;;13.30;;
18732;SDS011;9495;51.210;2.934;2023-08-24T05:54:58;21.38;;;13.18;;
18732;SDS011;9495;51.210;2.934;2023-08-24T05:57:27;18.95;;;14.30;;
18732;SDS011;9495;51.210;2.934;2023-08-24T05:59:56;20.42;;;13.05;;
18732;SDS011;9495;51.210;2.934;2023-08-24T06:02:25;22.70;;;13.93;;
18732;SDS011;9495;51.210;2.934;2023-08-24T06:04:54;21.55;;;14.10;;
18732;SDS011;9495;51.210;2.934;2023-08-24T06:07:23;19.05;;;13.98;;
18732;SDS011;9495;51.210;2.934;2023-08-24T06:09:51;20.65;;;14.35;;
18732;SDS011;9495;51.210;2.934;2023-08-24T06:12:19;19.38;;;14.23;;
18732;SDS011;9495;51.210;2.934;2023-08-24T06:14:48;22.10;;;13.77;;
18732;SDS011;9495;51.210;2.934;2023-08-24T06:17:19;22.95;;;14.65;;
18732;SDS011;9495;51.210;2.934;2023-08-24T06:19:47;23.13;;;13.63;;
18732;SDS011;9495;51.210;2.934;2023-08-24T06:22:16;21.40;;;14.27;;
18732;SDS011;9495;51.210;2.934;2023-08-24T06:24:45;20.10;;;15.18;;
18732;SDS011;9495;51.210;2.934;2023-08-24T06:27:13;22.10;;;13.77;;
18732;SDS011;9495;51.210;2.934;2023-08-24T06:29:42;20.55;;;14.88;;
18732;SDS011;9495;51.210;2.934;2023-08-24T06:32:11;20.80;;;14.93;;
18732;SDS011;9495;51.210;2.934;2023-08-24T06:34:41;21.05;;;14.48;;
18732;SDS011;9495;51.210;2.934;2023-08-24T06:37:12;18.45;;;13.05;;
18732;SDS011;9495;51.210;2.934;2023-08-24T06:39:41;21.70;;;14.20;;
18732;SDS011;9495;51.210;2.934;2023-08-24T06:42:09;18.63;;;13.65;;
18732;SDS011;9495;51.210;2.934;2023-08-24T06:44:38;21.60;;;15.02;;
18732;SDS011;9495;51.210;2.934;2023-08-24T06:47:06;26.08;;;14.18;;
18732;SDS011;9495;51.210;2.934;2023-08-24T06:49:36;19.50;;;13.90;;
18732;SDS011;9495;51.210;2.934;2023-08-24T06:52:06;20.67;;;14.32;;
18732;SDS011;9495;51.210;2.934;2023-08-24T06:54:35;17.85;;;12.65;;
18732;SDS011;9495;51.210;2.934;2023-08-24T06:57:03;20.10;;;13.38;;
18732;SDS011;9495;51.210;2.934;2023-08-24T06:59:32;20.10;;;13.65;;
18732;SDS011;9495;51.210;2.934;2023-08-24T07:02:00;20.23;;;13.70;;
18732;SDS011;9495;51.210;2.934;2023-08-24T07:04:30;20.38;;;13.77;;
18732;SDS011;9495;51.210;2.934;2023-08-24T07:07:00;20.95;;;13.02;;
18732;SDS011;9495;51.210;2.934;2023-08-24T07:09:30;18.02;;;12.52;;
18732;SDS011;9495;51.210;2.934;2023-08-24T07:11:59;19.15;;;13.98;;
18732;SDS011;9495;51.210;2.934;2023-08-24T07:14:28;21.00;;;14.27;;
18732;SDS011;9495;51.210;2.934;2023-08-24T07:16:56;17.42;;;13.35;;
18732;SDS011;9495;51.210;2.934;2023-08-24T07:19:25;19.88;;;14.38;;
18732;SDS011;9495;51.210;2.934;2023-08-24T07:21:54;18.55;;;13.75;;
18732;SDS011;9495;51.210;2.934;2023-08-24T07:24:23;21.20;;;14.32;;
18732;SDS011;9495;51.210;2.934;2023-08-24T07:27:10;22.35;;;14.00;;
18732;SDS011;9495;51.210;2.934;2023-08-24T07:29:39;24.60;;;14.70;;
18732;SDS011;9495;51.210;2.934;2023-08-24T07:32:07;22.83;;;15.32;;
18732;SDS011;9495;51.210;2.934;2023-08-24T07:34:36;20.42;;;14.25;;
18732;SDS011;9495;51.210;2.934;2023-08-24T07:37:05;20.70;;;15.32;;
18732;SDS011;9495;51.210;2.934;2023-08-24T07:39:33;22.40;;;15.90;;
18732;SDS011;9495;51.210;2.934;2023-08-24T07:42:02;22.92;;;15.57;;
18732;SDS011;9495;51.210;2.934;2023-08-24T07:44:32;19.65;;;15.57;;
18732;SDS011;9495;51.210;2.934;2023-08-24T07:47:00;21.05;;;12.75;;
18732;SDS011;9495;51.210;2.934;2023-08-24T07:49:29;19.50;;;12.40;;
18732;SDS011;9495;51.210;2.934;2023-08-24T07:51:58;19.48;;;12.98;;
18732;SDS011;9495;51.210;2.934;2023-08-24T07:54:26;16.45;;;12.63;;
18732;SDS011;9495;51.210;2.934;2023-08-24T07:56:55;22.48;;;12.32;;
18732;SDS011;9495;51.210;2.934;2023-08-24T07:59:23;15.50;;;12.38;;
18732;SDS011;9495;51.210;2.934;2023-08-24T08:01:53;17.27;;;12.48;;
18732;SDS011;9495;51.210;2.934;2023-08-24T08:04:22;20.33;;;12.70;;
18732;SDS011;9495;51.210;2.934;2023-08-24T08:06:50;19.05;;;12.85;;
18732;SDS011;9495;51.210;2.934;2023-08-24T08:09:19;18.67;;;13.52;;
18732;SDS011;9495;51.210;2.934;2023-08-24T08:11:48;17.67;;;13.27;;
18732;SDS011;9495;51.210;2.934;2023-08-24T08:14:17;19.73;;;12.82;;
18732;SDS011;9495;51.210;2.934;2023-08-24T08:16:46;20.75;;;13.60;;
18732;SDS011;9495;51.210;2.934;2023-08-24T08:19:16;17.80;;;13.13;;
18732;SDS011;9495;51.210;2.934;2023-08-24T08:21:46;22.73;;;13.85;;
18732;SDS011;9495;51.210;2.934;2023-08-24T08:24:14;20.08;;;13.85;;
18732;SDS011;9495;51.210;2.934;2023-08-24T08:26:51;22.85;;;13.80;;
18732;SDS011;9495;51.210;2.934;2023-08-24T08:29:20;26.95;;;13.55;;
18732;SDS011;9495;51.210;2.934;2023-08-24T08:31:49;27.55;;;14.30;;
18732;SDS011;9495;51.210;2.934;2023-08-24T08:34:20;26.17;;;13.98;;
18732;SDS011;9495;51.210;2.934;2023-08-24T08:36:48;19.45;;;14.25;;
18732;SDS011;9495;51.210;2.934;2023-08-24T08:39:17;20.17;;;14.80;;
18732;SDS011;9495;51.210;2.934;2023-08-24T08:41:48;17.83;;;15.13;;
18732;SDS011;9495;51.210;2.934;2023-08-24T08:44:17;20.00;;;14.05;;
18732;SDS011;9495;51.210;2.934;2023-08-24T08:46:47;22.00;;;14.05;;
18732;SDS011;9495;51.210;2.934;2023-08-24T08:49:17;19.63;;;13.90;;
18732;SDS011;9495;51.210;2.934;2023-08-24T08:51:49;19.63;;;14.35;;
18732;SDS011;9495;51.210;2.934;2023-08-24T08:54:18;21.33;;;15.52;;
18732;SDS011;9495;51.210;2.934;2023-08-24T08:56:47;18.10;;;13.68;;
18732;SDS011;9495;51.210;2.934;2023-08-24T08:59:16;19.02;;;13.30;;
18732;SDS011;9495;51.210;2.934;2023-08-24T09:01:45;15.98;;;12.88;;
18732;SDS011;9495;51.210;2.934;2023-08-24T09:04:17;15.10;;;12.15;;
18732;SDS011;9495;51.210;2.934;2023-08-24T09:06:47;13.95;;;11.32;;
18732;SDS011;9495;51.210;2.934;2023-08-24T09:09:15;19.33;;;11.85;;
18732;SDS011;9495;51.210;2.934;2023-08-24T09:11:44;20.50;;;11.18;;
18732;SDS011;9495;51.210;2.934;2023-08-24T09:14:14;13.20;;;11.27;;
18732;SDS011;9495;51.210;2.934;2023-08-24T09:16:42;13.10;;;10.20;;
18732;SDS011;9495;51.210;2.934;2023-08-24T09:19:11;15.65;;;10.30;;
18732;SDS011;9495;51.210;2.934;2023-08-24T09:21:40;18.02;;;10.43;;
18732;SDS011;9495;51.210;2.934;2023-08-24T09:24:10;15.50;;;10.43;;
18732;SDS011;9495;51.210;2.934;2023-08-24T09:26:39;14.43;;;11.13;;
18732;SDS011;9495;51.210;2.934;2023-08-24T09:29:12;12.50;;;10.25;;
18732;SDS011;9495;51.210;2.934;2023-08-24T09:31:42;31.63;;;9.88;;
18732;SDS011;9495;51.210;2.934;2023-08-24T09:34:11;13.75;;;9.52;;
18732;SDS011;9495;51.210;2.934;2023-08-24T09:36:41;13.32;;;8.43;;
18732;SDS011;9495;51.210;2.934;2023-08-24T09:39:14;15.52;;;9.05;;
18732;SDS011;9495;51.210;2.934;2023-08-24T09:41:46;11.20;;;7.60;;
18732;SDS011;9495;51.210;2.934;2023-08-24T09:44:16;12.77;;;7.32;;
18732;SDS011;9495;51.210;2.934;2023-08-24T09:46:45;8.25;;;6.55;;
18732;SDS011;9495;51.210;2.934;2023-08-24T09:49:14;8.77;;;6.57;;
18732;SDS011;9495;51.210;2.934;2023-08-24T09:51:42;9.43;;;6.63;;
18732;SDS011;9495;51.210;2.934;2023-08-24T09:54:12;9.88;;;6.53;;
18732;SDS011;9495;51.210;2.934;2023-08-24T09:56:47;12.00;;;6.82;;
18732;SDS011;9495;51.210;2.934;2023-08-24T09:59:18;11.77;;;6.40;;
18732;SDS011;9495;51.210;2.934;2023-08-24T10:01:51;9.43;;;6.50;;
18732;SDS011;9495;51.210;2.934;2023-08-24T10:04:24;10.73;;;5.85;;
18732;SDS011;9495;51.210;2.934;2023-08-24T10:06:54;8.02;;;4.57;;
18732;SDS011;9495;51.210;2.934;2023-08-24T10:09:30;6.82;;;4.00;;
18732;SDS011;9495;51.210;2.934;2023-08-24T10:12:02;6.05;;;4.05;;
18732;SDS011;9495;51.210;2.934;2023-08-24T10:14:35;6.63;;;4.15;;
18732;SDS011;9495;51.210;2.934;2023-08-24T10:17:09;7.72;;;3.75;;
18732;SDS011;9495;51.210;2.934;2023-08-24T10:19:41;7.43;;;3.83;;
18732;SDS011;9495;51.210;2.934;2023-08-24T10:22:11;8.52;;;3.63;;
18732;SDS011;9495;51.210;2.934;2023-08-24T10:24:41;4.30;;;3.28;;
18732;SDS011;9495;51.210;2.934;2023-08-24T10:27:11;6.63;;;3.60;;
18732;SDS011;9495;51.210;2.934;2023-08-24T10:29:41;8.82;;;4.10;;
18732;SDS011;9495;51.210;2.934;2023-08-24T10:32:09;5.05;;;3.63;;
18732;SDS011;9495;51.210;2.934;2023-08-24T10:34:39;5.32;;;3.92;;
18732;SDS011;9495;51.210;2.934;2023-08-24T10:37:07;5.22;;;3.80;;
18732;SDS011;9495;51.210;2.934;2023-08-24T10:39:37;5.55;;;4.05;;
18732;SDS011;9495;51.210;2.934;2023-08-24T10:42:12;6.47;;;4.00;;
18732;SDS011;9495;51.210;2.934;2023-08-24T10:44:43;6.50;;;3.92;;
18732;SDS011;9495;51.210;2.934;2023-08-24T10:47:13;7.93;;;4.90;;
18732;SDS011;9495;51.210;2.934;2023-08-24T10:49:42;5.95;;;4.20;;
18732;SDS011;9495;51.210;2.934;2023-08-24T10:52:18;8.82;;;4.97;;
18732;SDS011;9495;51.210;2.934;2023-08-24T10:54:51;6.10;;;4.20;;
18732;SDS011;9495;51.210;2.934;2023-08-24T10:57:20;6.07;;;4.57;;
18732;SDS011;9495;51.210;2.934;2023-08-24T10:59:59;6.45;;;4.90;;
18732;SDS011;9495;51.210;2.934;2023-08-24T11:02:40;7.70;;;5.50;;
18732;SDS011;9495;51.210;2.934;2023-08-24T11:05:17;6.13;;;5.13;;
18732;SDS011;9495;51.210;2.934;2023-08-24T11:07:48;9.48;;;6.30;;
18732;SDS011;9495;51.210;2.934;2023-08-24T11:10:19;6.75;;;4.57;;
18732;SDS011;9495;51.210;2.934;2023-08-24T11:13:06;6.93;;;5.35;;
18732;SDS011;9495;51.210;2.934;2023-08-24T11:15:40;6.75;;;4.78;;
18732;SDS011;9495;51.210;2.934;2023-08-24T11:18:19;6.85;;;5.53;;
18732;SDS011;9495;51.210;2.934;2023-08-24T11:20:50;7.68;;;5.38;;
18732;SDS011;9495;51.210;2.934;2023-08-24T11:23:20;8.20;;;5.70;;
18732;SDS011;9495;51.210;2.934;2023-08-24T11:25:51;7.22;;;4.88;;
18732;SDS011;9495;51.210;2.934;2023-08-24T11:28:23;7.40;;;4.80;;
18732;SDS011;9495;51.210;2.934;2023-08-24T11:30:52;6.63;;;4.70;;
18732;SDS011;9495;51.210;2.934;2023-08-24T11:33:28;9.32;;;4.82;;
18732;SDS011;9495;51.210;2.934;2023-08-24T11:35:57;10.23;;;5.65;;
18732;SDS011;9495;51.210;2.934;2023-08-24T11:38:35;7.43;;;4.55;;
18732;SDS011;9495;51.210;2.934;2023-08-24T11:41:11;5.97;;;4.55;;
18732;SDS011;9495;51.210;2.934;2023-08-24T11:43:41;4.97;;;4.20;;
18732;SDS011;9495;51.210;2.934;2023-08-24T11:46:10;5.38;;;4.32;;
18732;SDS011;9495;51.210;2.934;2023-08-24T11:48:39;5.90;;;4.13;;
18732;SDS011;9495;51.210;2.934;2023-08-24T11:51:08;7.80;;;4.68;;
18732;SDS011;9495;51.210;2.934;2023-08-24T11:53:39;5.57;;;3.83;;
18732;SDS011;9495;51.210;2.934;2023-08-24T11:56:09;4.63;;;4.20;;
18732;SDS011;9495;51.210;2.934;2023-08-24T11:58:39;6.18;;;4.68;;
18732;SDS011;9495;51.210;2.934;2023-08-24T12:01:09;6.55;;;4.47;;
18732;SDS011;9495;51.210;2.934;2023-08-24T12:03:39;7.82;;;5.45;;
18732;SDS011;9495;51.210;2.934;2023-08-24T12:06:11;9.15;;;5.88;;
18732;SDS011;9495;51.210;2.934;2023-08-24T12:08:40;6.57;;;5.00;;
18732;SDS011;9495;51.210;2.934;2023-08-24T12:11:11;7.10;;;5.20;;
18732;SDS011;9495;51.210;2.934;2023-08-24T12:13:43;9.98;;;5.65;;
18732;SDS011;9495;51.210;2.934;2023-08-24T12:16:13;7.93;;;5.30;;
18732;SDS011;9495;51.210;2.934;2023-08-24T12:18:46;6.22;;;5.47;;
18732;SDS011;9495;51.210;2.934;2023-08-24T12:21:15;7.35;;;5.20;;
18732;SDS011;9495;51.210;2.934;2023-08-24T12:23:54;7.13;;;5.95;;
18732;SDS011;9495;51.210;2.934;2023-08-24T12:26:25;8.02;;;5.35;;
18732;SDS011;9495;51.210;2.934;2023-08-24T12:28:55;6.00;;;5.40;;
18732;SDS011;9495;51.210;2.934;2023-08-24T12:31:29;10.85;;;6.22;;
18732;SDS011;9495;51.210;2.934;2023-08-24T12:33:58;7.78;;;5.30;;
18732;SDS011;9495;51.210;2.934;2023-08-24T12:36:28;8.02;;;6.35;;
18732;SDS011;9495;51.210;2.934;2023-08-24T12:38:57;9.77;;;6.57;;
18732;SDS011;9495;51.210;2.934;2023-08-24T12:41:27;10.55;;;6.50;;
18732;SDS011;9495;51.210;2.934;2023-08-24T12:43:56;7.85;;;5.78;;
18732;SDS011;9495;51.210;2.934;2023-08-24T12:46:25;6.75;;;5.35;;
18732;SDS011;9495;51.210;2.934;2023-08-24T12:48:54;10.13;;;6.00;;
18732;SDS011;9495;51.210;2.934;2023-08-24T12:51:23;7.93;;;5.68;;
18732;SDS011;9495;51.210;2.934;2023-08-24T12:53:52;7.93;;;6.10;;
18732;SDS011;9495;51.210;2.934;2023-08-24T12:56:20;9.27;;;6.10;;
18732;SDS011;9495;51.210;2.934;2023-08-24T12:58:50;9.65;;;5.82;;
18732;SDS011;9495;51.210;2.934;2023-08-24T13:01:19;8.23;;;5.80;;
18732;SDS011;9495;51.210;2.934;2023-08-24T13:03:48;8.55;;;5.45;;
18732;SDS011;9495;51.210;2.934;2023-08-24T13:06:16;7.05;;;5.15;;
18732;SDS011;9495;51.210;2.934;2023-08-24T13:08:48;6.40;;;5.22;;
18732;SDS011;9495;51.210;2.934;2023-08-24T13:11:16;8.85;;;6.05;;
18732;SDS011;9495;51.210;2.934;2023-08-24T13:13:45;6.68;;;5.93;;
18732;SDS011;9495;51.210;2.934;2023-08-24T13:16:15;6.43;;;5.18;;
18732;SDS011;9495;51.210;2.934;2023-08-24T13:18:43;5.38;;;4.80;;
18732;SDS011;9495;51.210;2.934;2023-08-24T13:21:12;7.75;;;5.55;;
18732;SDS011;9495;51.210;2.934;2023-08-24T13:23:44;7.95;;;6.05;;
18732;SDS011;9495;51.210;2.934;2023-08-24T13:26:17;6.68;;;5.65;;
18732;SDS011;9495;51.210;2.934;2023-08-24T13:28:46;7.03;;;5.50;;
18732;SDS011;9495;51.210;2.934;2023-08-24T13:31:16;9.32;;;5.65;;
18732;SDS011;9495;51.210;2.934;2023-08-24T13:33:45;6.53;;;4.95;;
18732;SDS011;9495;51.210;2.934;2023-08-24T13:36:13;6.63;;;5.32;;
18732;SDS011;9495;51.210;2.934;2023-08-24T13:38:43;6.55;;;5.30;;
18732;SDS011;9495;51.210;2.934;2023-08-24T13:41:12;9.02;;;5.28;;
18732;SDS011;9495;51.210;2.934;2023-08-24T13:43:40;4.63;;;4.15;;
18732;SDS011;9495;51.210;2.934;2023-08-24T13:46:09;6.72;;;4.57;;
18732;SDS011;9495;51.210;2.934;2023-08-24T13:48:39;8.60;;;4.63;;
18732;SDS011;9495;51.210;2.934;2023-08-24T13:51:07;7.53;;;4.88;;
18732;SDS011;9495;51.210;2.934;2023-08-24T13:53:36;5.80;;;4.53;;
18732;SDS011;9495;51.210;2.934;2023-08-24T13:56:05;6.07;;;4.78;;
18732;SDS011;9495;51.210;2.934;2023-08-24T13:58:33;6.15;;;4.57;;
18732;SDS011;9495;51.210;2.934;2023-08-24T14:01:02;6.35;;;4.47;;
18732;SDS011;9495;51.210;2.934;2023-08-24T14:03:31;6.53;;;4.68;;
18732;SDS011;9495;51.210;2.934;2023-08-24T14:06:00;9.38;;;4.72;;
18732;SDS011;9495;51.210;2.934;2023-08-24T14:08:29;8.65;;;5.07;;
18732;SDS011;9495;51.210;2.934;2023-08-24T14:10:57;8.18;;;5.03;;
18732;SDS011;9495;51.210;2.934;2023-08-24T14:13:26;7.90;;;4.80;;
18732;SDS011;9495;51.210;2.934;2023-08-24T14:15:55;5.07;;;4.38;;
18732;SDS011;9495;51.210;2.934;2023-08-24T14:18:24;5.78;;;4.60;;
18732;SDS011;9495;51.210;2.934;2023-08-24T14:20:52;5.90;;;4.95;;
18732;SDS011;9495;51.210;2.934;2023-08-24T14:23:22;7.97;;;4.93;;
18732;SDS011;9495;51.210;2.934;2023-08-24T14:25:51;7.35;;;4.97;;
18732;SDS011;9495;51.210;2.934;2023-08-24T14:28:20;7.88;;;4.53;;
18732;SDS011;9495;51.210;2.934;2023-08-24T14:30:49;8.80;;;5.60;;
18732;SDS011;9495;51.210;2.934;2023-08-24T14:33:18;7.20;;;4.53;;
18732;SDS011;9495;51.210;2.934;2023-08-24T14:35:50;8.63;;;4.78;;
18732;SDS011;9495;51.210;2.934;2023-08-24T14:38:19;8.77;;;5.18;;
18732;SDS011;9495;51.210;2.934;2023-08-24T14:40:49;9.35;;;5.75;;
18732;SDS011;9495;51.210;2.934;2023-08-24T14:43:18;6.97;;;4.85;;
18732;SDS011;9495;51.210;2.934;2023-08-24T14:45:46;10.07;;;4.80;;
18732;SDS011;9495;51.210;2.934;2023-08-24T14:48:15;8.10;;;5.10;;
18732;SDS011;9495;51.210;2.934;2023-08-24T14:50:44;6.07;;;5.10;;
18732;SDS011;9495;51.210;2.934;2023-08-24T14:53:12;7.38;;;4.78;;
18732;SDS011;9495;51.210;2.934;2023-08-24T14:55:41;9.52;;;5.30;;
18732;SDS011;9495;51.210;2.934;2023-08-24T14:58:11;7.38;;;4.90;;
18732;SDS011;9495;51.210;2.934;2023-08-24T15:00:39;5.93;;;4.38;;